Terminal Aerodrome Forecast
Issued by NWS Pueblo, CO

Home | Current Version | Previous Version | Text Only | Print | Product List | Glossary On
Versions: 1 2 3 4 5 6 7 8 9 10 11 12 13 14 15 16 17 18 19 20 21 22 23 24 25 26 27 28 29 30 31 32 33 34 35 36 37
000
FTUS45 KPUB 310520
TAFALS
TAF
KALS 310520Z 3106/0106 11005KT P6SM VCSH SCT025 OVC100
      TEMPO 3106/3107 -SHRA BKN025 OVC040
     FM310800 VRB05KT P6SM SCT015
      TEMPO 3110/3114 2SM BR OVC015
     FM311500 21006KT P6SM SCT025
     FM311900 23011KT P6SM SCT050
     FM312100 20010KT P6SM VCTS SCT050CB
     FM010200 12008KT P6SM SCT050 BKN120=

USA.gov is the U.S. government's official web portal to all federal, state and local government web resources and services.